sensor_id;sensor_type;location;lat;lon;timestamp;P1;durP1;ratioP1;P2;durP2;ratioP2
22024;SDS011;11176;51.448;6.650;2022-11-14T00:02:33;15.30;;;8.10;;
22024;SDS011;11176;51.448;6.650;2022-11-14T00:05:19;12.48;;;8.38;;
22024;SDS011;11176;51.448;6.650;2022-11-14T00:08:04;13.40;;;8.57;;
22024;SDS011;11176;51.448;6.650;2022-11-14T00:10:50;15.65;;;8.73;;
22024;SDS011;11176;51.448;6.650;2022-11-14T00:13:35;12.25;;;8.20;;
22024;SDS011;11176;51.448;6.650;2022-11-14T00:16:20;12.10;;;8.88;;
22024;SDS011;11176;51.448;6.650;2022-11-14T00:19:05;13.02;;;8.32;;
22024;SDS011;11176;51.448;6.650;2022-11-14T00:21:50;16.48;;;8.70;;
22024;SDS011;11176;51.448;6.650;2022-11-14T00:24:37;13.07;;;8.68;;
22024;SDS011;11176;51.448;6.650;2022-11-14T00:27:21;11.80;;;7.50;;
22024;SDS011;11176;51.448;6.650;2022-11-14T00:30:07;14.32;;;8.68;;
22024;SDS011;11176;51.448;6.650;2022-11-14T00:32:52;12.07;;;8.02;;
22024;SDS011;11176;51.448;6.650;2022-11-14T00:35:37;17.38;;;8.60;;
22024;SDS011;11176;51.448;6.650;2022-11-14T00:38:22;13.07;;;8.32;;
22024;SDS011;11176;51.448;6.650;2022-11-14T00:41:07;15.27;;;8.77;;
22024;SDS011;11176;51.448;6.650;2022-11-14T00:43:53;12.38;;;8.20;;
22024;SDS011;11176;51.448;6.650;2022-11-14T00:46:37;12.63;;;8.00;;
22024;SDS011;11176;51.448;6.650;2022-11-14T00:49:22;12.82;;;8.55;;
22024;SDS011;11176;51.448;6.650;2022-11-14T00:52:07;12.57;;;8.30;;
22024;SDS011;11176;51.448;6.650;2022-11-14T00:54:53;11.02;;;8.05;;
22024;SDS011;11176;51.448;6.650;2022-11-14T00:57:38;12.43;;;8.43;;
22024;SDS011;11176;51.448;6.650;2022-11-14T01:00:23;12.85;;;7.97;;
22024;SDS011;11176;51.448;6.650;2022-11-14T01:03:08;12.15;;;8.45;;
22024;SDS011;11176;51.448;6.650;2022-11-14T01:05:53;12.15;;;8.65;;
22024;SDS011;11176;51.448;6.650;2022-11-14T01:08:38;11.68;;;7.95;;
22024;SDS011;11176;51.448;6.650;2022-11-14T01:11:23;13.20;;;9.23;;
22024;SDS011;11176;51.448;6.650;2022-11-14T01:14:08;11.30;;;8.13;;
22024;SDS011;11176;51.448;6.650;2022-11-14T01:16:53;11.77;;;8.40;;
22024;SDS011;11176;51.448;6.650;2022-11-14T01:19:38;12.55;;;8.43;;
22024;SDS011;11176;51.448;6.650;2022-11-14T01:22:23;12.02;;;8.50;;
22024;SDS011;11176;51.448;6.650;2022-11-14T01:25:08;13.43;;;8.95;;
22024;SDS011;11176;51.448;6.650;2022-11-14T01:27:53;11.88;;;8.40;;
22024;SDS011;11176;51.448;6.650;2022-11-14T01:30:38;13.27;;;9.20;;
22024;SDS011;11176;51.448;6.650;2022-11-14T01:33:24;11.80;;;8.35;;
22024;SDS011;11176;51.448;6.650;2022-11-14T01:36:09;11.82;;;8.82;;
22024;SDS011;11176;51.448;6.650;2022-11-14T01:38:54;16.55;;;9.05;;
22024;SDS011;11176;51.448;6.650;2022-11-14T01:41:39;13.25;;;9.13;;
22024;SDS011;11176;51.448;6.650;2022-11-14T01:44:42;11.43;;;8.82;;
22024;SDS011;11176;51.448;6.650;2022-11-14T01:47:32;13.18;;;9.48;;
22024;SDS011;11176;51.448;6.650;2022-11-14T01:50:17;14.65;;;10.05;;
22024;SDS011;11176;51.448;6.650;2022-11-14T01:53:03;12.32;;;9.38;;
22024;SDS011;11176;51.448;6.650;2022-11-14T01:55:48;11.75;;;9.02;;
22024;SDS011;11176;51.448;6.650;2022-11-14T01:58:34;13.80;;;9.82;;
22024;SDS011;11176;51.448;6.650;2022-11-14T02:01:22;12.63;;;9.07;;
22024;SDS011;11176;51.448;6.650;2022-11-14T02:04:09;13.82;;;10.05;;
22024;SDS011;11176;51.448;6.650;2022-11-14T02:07:00;12.25;;;9.38;;
22024;SDS011;11176;51.448;6.650;2022-11-14T02:09:47;13.77;;;10.45;;
22024;SDS011;11176;51.448;6.650;2022-11-14T02:12:33;14.88;;;10.15;;
22024;SDS011;11176;51.448;6.650;2022-11-14T02:15:18;15.55;;;10.25;;
22024;SDS011;11176;51.448;6.650;2022-11-14T02:18:03;15.95;;;10.00;;
22024;SDS011;11176;51.448;6.650;2022-11-14T02:20:48;13.65;;;10.68;;
22024;SDS011;11176;51.448;6.650;2022-11-14T02:23:33;13.88;;;9.68;;
22024;SDS011;11176;51.448;6.650;2022-11-14T02:26:18;14.70;;;10.35;;
22024;SDS011;11176;51.448;6.650;2022-11-14T02:29:05;14.82;;;10.95;;
22024;SDS011;11176;51.448;6.650;2022-11-14T02:31:51;15.05;;;10.55;;
22024;SDS011;11176;51.448;6.650;2022-11-14T02:34:37;14.50;;;11.40;;
22024;SDS011;11176;51.448;6.650;2022-11-14T02:37:22;15.57;;;10.85;;
22024;SDS011;11176;51.448;6.650;2022-11-14T02:40:07;15.05;;;11.07;;
22024;SDS011;11176;51.448;6.650;2022-11-14T02:42:53;17.52;;;11.45;;
22024;SDS011;11176;51.448;6.650;2022-11-14T02:45:38;15.02;;;10.77;;
22024;SDS011;11176;51.448;6.650;2022-11-14T02:48:23;15.10;;;10.43;;
22024;SDS011;11176;51.448;6.650;2022-11-14T02:51:07;17.60;;;11.00;;
22024;SDS011;11176;51.448;6.650;2022-11-14T02:53:53;15.75;;;11.57;;
22024;SDS011;11176;51.448;6.650;2022-11-14T02:56:38;15.60;;;11.38;;
22024;SDS011;11176;51.448;6.650;2022-11-14T02:59:22;14.90;;;11.32;;
22024;SDS011;11176;51.448;6.650;2022-11-14T03:02:07;14.60;;;10.85;;
22024;SDS011;11176;51.448;6.650;2022-11-14T03:04:52;16.45;;;11.05;;
22024;SDS011;11176;51.448;6.650;2022-11-14T03:07:37;16.17;;;11.55;;
22024;SDS011;11176;51.448;6.650;2022-11-14T03:10:22;13.80;;;10.70;;
22024;SDS011;11176;51.448;6.650;2022-11-14T03:13:08;17.00;;;11.70;;
22024;SDS011;11176;51.448;6.650;2022-11-14T03:15:53;16.30;;;10.88;;
22024;SDS011;11176;51.448;6.650;2022-11-14T03:18:38;17.88;;;12.02;;
22024;SDS011;11176;51.448;6.650;2022-11-14T03:21:23;16.65;;;10.68;;
22024;SDS011;11176;51.448;6.650;2022-11-14T03:24:07;17.98;;;12.00;;
22024;SDS011;11176;51.448;6.650;2022-11-14T03:26:52;16.45;;;12.27;;
22024;SDS011;11176;51.448;6.650;2022-11-14T03:29:37;16.05;;;10.93;;
22024;SDS011;11176;51.448;6.650;2022-11-14T03:32:22;16.25;;;12.02;;
22024;SDS011;11176;51.448;6.650;2022-11-14T03:35:07;14.85;;;11.70;;
22024;SDS011;11176;51.448;6.650;2022-11-14T03:37:53;16.20;;;11.88;;
22024;SDS011;11176;51.448;6.650;2022-11-14T03:40:41;15.60;;;12.20;;
22024;SDS011;11176;51.448;6.650;2022-11-14T03:43:28;16.58;;;11.23;;
22024;SDS011;11176;51.448;6.650;2022-11-14T03:46:15;17.00;;;12.98;;
22024;SDS011;11176;51.448;6.650;2022-11-14T03:49:01;15.52;;;12.05;;
22024;SDS011;11176;51.448;6.650;2022-11-14T03:51:46;16.38;;;11.65;;
22024;SDS011;11176;51.448;6.650;2022-11-14T03:54:32;17.65;;;12.85;;
22024;SDS011;11176;51.448;6.650;2022-11-14T03:57:16;19.33;;;13.20;;
22024;SDS011;11176;51.448;6.650;2022-11-14T04:00:02;17.23;;;12.65;;
22024;SDS011;11176;51.448;6.650;2022-11-14T04:02:47;20.50;;;13.07;;
22024;SDS011;11176;51.448;6.650;2022-11-14T04:05:32;18.25;;;12.95;;
22024;SDS011;11176;51.448;6.650;2022-11-14T04:08:17;18.35;;;13.63;;
22024;SDS011;11176;51.448;6.650;2022-11-14T04:11:02;21.38;;;13.93;;
22024;SDS011;11176;51.448;6.650;2022-11-14T04:13:47;18.70;;;13.90;;
22024;SDS011;11176;51.448;6.650;2022-11-14T04:16:32;19.13;;;14.20;;
22024;SDS011;11176;51.448;6.650;2022-11-14T04:19:17;22.75;;;14.43;;
22024;SDS011;11176;51.448;6.650;2022-11-14T04:22:02;20.05;;;14.32;;
22024;SDS011;11176;51.448;6.650;2022-11-14T04:24:47;25.20;;;15.23;;
22024;SDS011;11176;51.448;6.650;2022-11-14T04:27:32;19.33;;;14.63;;
22024;SDS011;11176;51.448;6.650;2022-11-14T04:30:18;22.02;;;14.73;;
22024;SDS011;11176;51.448;6.650;2022-11-14T04:33:03;21.85;;;15.30;;
22024;SDS011;11176;51.448;6.650;2022-11-14T04:35:47;20.95;;;14.93;;
22024;SDS011;11176;51.448;6.650;2022-11-14T04:38:32;18.60;;;14.75;;
22024;SDS011;11176;51.448;6.650;2022-11-14T04:41:17;18.70;;;14.57;;
22024;SDS011;11176;51.448;6.650;2022-11-14T04:44:02;19.85;;;14.70;;
22024;SDS011;11176;51.448;6.650;2022-11-14T04:46:47;20.17;;;15.25;;
22024;SDS011;11176;51.448;6.650;2022-11-14T04:49:32;23.95;;;15.13;;
22024;SDS011;11176;51.448;6.650;2022-11-14T04:52:17;19.73;;;14.73;;
22024;SDS011;11176;51.448;6.650;2022-11-14T04:55:02;17.55;;;13.52;;
22024;SDS011;11176;51.448;6.650;2022-11-14T04:57:52;19.15;;;14.68;;
22024;SDS011;11176;51.448;6.650;2022-11-14T05:00:38;22.42;;;15.32;;
22024;SDS011;11176;51.448;6.650;2022-11-14T05:03:24;19.02;;;14.50;;
22024;SDS011;11176;51.448;6.650;2022-11-14T05:06:09;18.92;;;15.13;;
22024;SDS011;11176;51.448;6.650;2022-11-14T05:08:54;18.92;;;14.73;;
22024;SDS011;11176;51.448;6.650;2022-11-14T05:11:39;18.85;;;14.18;;
22024;SDS011;11176;51.448;6.650;2022-11-14T05:14:24;18.08;;;13.82;;
22024;SDS011;11176;51.448;6.650;2022-11-14T05:17:09;23.55;;;14.80;;
22024;SDS011;11176;51.448;6.650;2022-11-14T05:19:54;20.33;;;14.85;;
22024;SDS011;11176;51.448;6.650;2022-11-14T05:22:39;20.38;;;14.63;;
22024;SDS011;11176;51.448;6.650;2022-11-14T05:25:24;18.88;;;14.07;;
22024;SDS011;11176;51.448;6.650;2022-11-14T05:28:10;19.88;;;13.77;;
22024;SDS011;11176;51.448;6.650;2022-11-14T05:33:46;20.45;;;14.18;;
22024;SDS011;11176;51.448;6.650;2022-11-14T05:36:31;19.15;;;13.85;;
22024;SDS011;11176;51.448;6.650;2022-11-14T05:39:16;21.52;;;13.93;;
22024;SDS011;11176;51.448;6.650;2022-11-14T05:42:01;17.10;;;12.98;;
22024;SDS011;11176;51.448;6.650;2022-11-14T05:44:47;18.73;;;14.30;;
22024;SDS011;11176;51.448;6.650;2022-11-14T05:47:32;18.33;;;12.73;;
22024;SDS011;11176;51.448;6.650;2022-11-14T05:50:17;20.90;;;14.00;;
22024;SDS011;11176;51.448;6.650;2022-11-14T05:53:01;18.90;;;14.10;;
22024;SDS011;11176;51.448;6.650;2022-11-14T05:55:46;19.52;;;12.85;;
22024;SDS011;11176;51.448;6.650;2022-11-14T05:58:32;21.55;;;14.82;;
22024;SDS011;11176;51.448;6.650;2022-11-14T06:01:19;19.95;;;14.15;;
22024;SDS011;11176;51.448;6.650;2022-11-14T06:04:04;22.70;;;13.70;;
22024;SDS011;11176;51.448;6.650;2022-11-14T06:06:50;20.40;;;14.10;;
22024;SDS011;11176;51.448;6.650;2022-11-14T06:09:35;20.23;;;13.90;;
22024;SDS011;11176;51.448;6.650;2022-11-14T06:12:20;20.17;;;14.55;;
22024;SDS011;11176;51.448;6.650;2022-11-14T06:15:04;22.88;;;14.43;;
22024;SDS011;11176;51.448;6.650;2022-11-14T06:17:53;20.52;;;14.40;;
22024;SDS011;11176;51.448;6.650;2022-11-14T06:20:38;23.83;;;14.55;;
22024;SDS011;11176;51.448;6.650;2022-11-14T06:23:23;21.88;;;14.10;;
22024;SDS011;11176;51.448;6.650;2022-11-14T06:26:22;22.85;;;15.75;;
22024;SDS011;11176;51.448;6.650;2022-11-14T06:29:08;20.65;;;14.20;;
22024;SDS011;11176;51.448;6.650;2022-11-14T06:31:54;19.95;;;14.80;;
22024;SDS011;11176;51.448;6.650;2022-11-14T06:34:38;18.58;;;14.18;;
22024;SDS011;11176;51.448;6.650;2022-11-14T06:37:23;20.80;;;14.70;;
22024;SDS011;11176;51.448;6.650;2022-11-14T06:40:09;22.95;;;14.73;;
22024;SDS011;11176;51.448;6.650;2022-11-14T06:42:54;21.95;;;14.85;;
22024;SDS011;11176;51.448;6.650;2022-11-14T06:45:40;21.70;;;14.98;;
22024;SDS011;11176;51.448;6.650;2022-11-14T06:48:25;22.42;;;14.50;;
22024;SDS011;11176;51.448;6.650;2022-11-14T06:51:11;21.48;;;14.82;;
22024;SDS011;11176;51.448;6.650;2022-11-14T06:53:57;19.98;;;15.05;;
22024;SDS011;11176;51.448;6.650;2022-11-14T06:56:42;22.73;;;15.27;;
22024;SDS011;11176;51.448;6.650;2022-11-14T06:59:27;23.65;;;15.45;;
22024;SDS011;11176;51.448;6.650;2022-11-14T07:02:12;22.30;;;14.88;;
22024;SDS011;11176;51.448;6.650;2022-11-14T07:05:05;23.15;;;14.70;;
22024;SDS011;11176;51.448;6.650;2022-11-14T07:07:50;23.35;;;15.43;;
22024;SDS011;11176;51.448;6.650;2022-11-14T07:10:35;24.02;;;15.85;;
22024;SDS011;11176;51.448;6.650;2022-11-14T07:13:20;27.92;;;15.80;;
22024;SDS011;11176;51.448;6.650;2022-11-14T07:16:05;24.33;;;15.60;;
22024;SDS011;11176;51.448;6.650;2022-11-14T07:18:51;23.17;;;16.02;;
22024;SDS011;11176;51.448;6.650;2022-11-14T07:21:35;24.40;;;16.00;;
22024;SDS011;11176;51.448;6.650;2022-11-14T07:24:20;21.83;;;15.35;;
22024;SDS011;11176;51.448;6.650;2022-11-14T07:27:05;22.10;;;15.73;;
22024;SDS011;11176;51.448;6.650;2022-11-14T07:29:53;23.70;;;15.73;;
22024;SDS011;11176;51.448;6.650;2022-11-14T07:32:37;25.02;;;16.17;;
22024;SDS011;11176;51.448;6.650;2022-11-14T07:35:23;19.75;;;14.30;;
22024;SDS011;11176;51.448;6.650;2022-11-14T07:38:08;21.70;;;15.05;;
22024;SDS011;11176;51.448;6.650;2022-11-14T07:40:57;21.00;;;14.20;;
22024;SDS011;11176;51.448;6.650;2022-11-14T07:43:44;21.75;;;15.25;;
22024;SDS011;11176;51.448;6.650;2022-11-14T07:46:29;20.38;;;14.88;;
22024;SDS011;11176;51.448;6.650;2022-11-14T07:49:14;21.55;;;14.90;;
22024;SDS011;11176;51.448;6.650;2022-11-14T07:51:59;23.05;;;14.63;;
22024;SDS011;11176;51.448;6.650;2022-11-14T07:54:44;21.23;;;14.25;;
22024;SDS011;11176;51.448;6.650;2022-11-14T07:57:29;24.65;;;14.15;;
22024;SDS011;11176;51.448;6.650;2022-11-14T08:00:22;20.45;;;13.85;;
22024;SDS011;11176;51.448;6.650;2022-11-14T08:03:07;20.50;;;14.18;;
22024;SDS011;11176;51.448;6.650;2022-11-14T08:06:02;20.25;;;13.55;;
22024;SDS011;11176;51.448;6.650;2022-11-14T08:08:53;19.50;;;13.18;;
22024;SDS011;11176;51.448;6.650;2022-11-14T08:11:38;22.38;;;12.73;;
22024;SDS011;11176;51.448;6.650;2022-11-14T08:14:32;20.50;;;12.52;;
22024;SDS011;11176;51.448;6.650;2022-11-14T08:17:19;22.23;;;13.45;;
22024;SDS011;11176;51.448;6.650;2022-11-14T08:20:05;16.73;;;12.25;;
22024;SDS011;11176;51.448;6.650;2022-11-14T08:22:52;25.20;;;15.38;;
22024;SDS011;11176;51.448;6.650;2022-11-14T08:25:38;22.52;;;15.60;;
22024;SDS011;11176;51.448;6.650;2022-11-14T08:28:23;26.52;;;17.38;;
22024;SDS011;11176;51.448;6.650;2022-11-14T08:31:08;29.25;;;18.35;;
22024;SDS011;11176;51.448;6.650;2022-11-14T08:33:54;25.83;;;16.98;;
22024;SDS011;11176;51.448;6.650;2022-11-14T08:36:40;28.75;;;18.95;;
22024;SDS011;11176;51.448;6.650;2022-11-14T08:39:24;27.35;;;17.92;;
22024;SDS011;11176;51.448;6.650;2022-11-14T08:42:09;29.45;;;18.73;;
22024;SDS011;11176;51.448;6.650;2022-11-14T08:44:54;25.73;;;15.52;;
22024;SDS011;11176;51.448;6.650;2022-11-14T08:47:39;28.63;;;16.55;;
22024;SDS011;11176;51.448;6.650;2022-11-14T08:50:24;28.10;;;17.25;;
22024;SDS011;11176;51.448;6.650;2022-11-14T08:53:10;25.48;;;15.43;;
22024;SDS011;11176;51.448;6.650;2022-11-14T08:55:55;26.27;;;15.35;;
22024;SDS011;11176;51.448;6.650;2022-11-14T08:58:40;24.25;;;15.88;;
22024;SDS011;11176;51.448;6.650;2022-11-14T09:01:25;28.63;;;17.48;;
22024;SDS011;11176;51.448;6.650;2022-11-14T09:04:10;26.63;;;17.25;;
22024;SDS011;11176;51.448;6.650;2022-11-14T09:06:55;27.67;;;17.17;;
22024;SDS011;11176;51.448;6.650;2022-11-14T09:09:42;29.23;;;18.25;;
22024;SDS011;11176;51.448;6.650;2022-11-14T09:12:27;30.33;;;18.33;;
22024;SDS011;11176;51.448;6.650;2022-11-14T09:15:12;29.70;;;18.58;;
22024;SDS011;11176;51.448;6.650;2022-11-14T09:17:57;32.00;;;18.15;;
22024;SDS011;11176;51.448;6.650;2022-11-14T09:20:42;28.98;;;17.13;;
22024;SDS011;11176;51.448;6.650;2022-11-14T09:23:27;28.63;;;17.98;;
22024;SDS011;11176;51.448;6.650;2022-11-14T09:26:14;27.40;;;16.77;;
22024;SDS011;11176;51.448;6.650;2022-11-14T09:29:00;29.88;;;18.27;;
22024;SDS011;11176;51.448;6.650;2022-11-14T09:31:46;27.10;;;16.88;;
22024;SDS011;11176;51.448;6.650;2022-11-14T09:34:30;28.40;;;17.70;;
22024;SDS011;11176;51.448;6.650;2022-11-14T09:37:16;31.48;;;19.77;;
22024;SDS011;11176;51.448;6.650;2022-11-14T09:40:01;30.02;;;18.33;;
22024;SDS011;11176;51.448;6.650;2022-11-14T09:45:50;35.05;;;20.38;;
22024;SDS011;11176;51.448;6.650;2022-11-14T09:48:37;29.90;;;18.38;;
22024;SDS011;11176;51.448;6.650;2022-11-14T09:51:22;29.50;;;17.60;;
22024;SDS011;11176;51.448;6.650;2022-11-14T09:54:19;30.15;;;18.90;;
22024;SDS011;11176;51.448;6.650;2022-11-14T09:57:14;29.02;;;17.70;;
22024;SDS011;11176;51.448;6.650;2022-11-14T10:00:01;31.17;;;19.10;;
22024;SDS011;11176;51.448;6.650;2022-11-14T10:06:22;28.35;;;17.15;;
22024;SDS011;11176;51.448;6.650;2022-11-14T10:09:28;24.65;;;16.13;;
22024;SDS011;11176;51.448;6.650;2022-11-14T10:12:21;23.73;;;15.55;;
22024;SDS011;11176;51.448;6.650;2022-11-14T10:18:11;25.92;;;16.13;;
22024;SDS011;11176;51.448;6.650;2022-11-14T10:27:32;25.77;;;16.50;;
22024;SDS011;11176;51.448;6.650;2022-11-14T10:30:29;25.75;;;16.45;;
22024;SDS011;11176;51.448;6.650;2022-11-14T10:33:43;24.42;;;16.38;;
22024;SDS011;11176;51.448;6.650;2022-11-14T10:42:34;20.90;;;13.60;;
22024;SDS011;11176;51.448;6.650;2022-11-14T10:45:29;17.20;;;10.82;;
22024;SDS011;11176;51.448;6.650;2022-11-14T10:48:24;16.65;;;10.57;;
22024;SDS011;11176;51.448;6.650;2022-11-14T10:51:34;16.88;;;10.63;;
22024;SDS011;11176;51.448;6.650;2022-11-14T10:54:29;17.80;;;9.93;;
22024;SDS011;11176;51.448;6.650;2022-11-14T10:57:21;12.70;;;8.70;;
22024;SDS011;11176;51.448;6.650;2022-11-14T11:00:16;15.20;;;8.68;;
22024;SDS011;11176;51.448;6.650;2022-11-14T11:03:03;15.75;;;8.48;;
22024;SDS011;11176;51.448;6.650;2022-11-14T11:05:49;12.63;;;8.23;;
22024;SDS011;11176;51.448;6.650;2022-11-14T11:08:42;12.13;;;7.55;;
22024;SDS011;11176;51.448;6.650;2022-11-14T11:11:54;12.02;;;8.05;;
22024;SDS011;11176;51.448;6.650;2022-11-14T11:14:43;12.38;;;7.65;;
22024;SDS011;11176;51.448;6.650;2022-11-14T11:17:29;13.50;;;7.65;;
22024;SDS011;11176;51.448;6.650;2022-11-14T11:23:20;12.88;;;7.72;;
22024;SDS011;11176;51.448;6.650;2022-11-14T11:29:04;14.20;;;8.25;;
22024;SDS011;11176;51.448;6.650;2022-11-14T11:31:51;16.25;;;8.13;;
22024;SDS011;11176;51.448;6.650;2022-11-14T11:34:38;11.80;;;8.25;;
22024;SDS011;11176;51.448;6.650;2022-11-14T11:37:25;13.68;;;9.50;;
22024;SDS011;11176;51.448;6.650;2022-11-14T11:40:18;13.73;;;8.63;;
22024;SDS011;11176;51.448;6.650;2022-11-14T11:46:18;14.02;;;9.65;;
22024;SDS011;11176;51.448;6.650;2022-11-14T11:52:35;15.27;;;9.82;;
22024;SDS011;11176;51.448;6.650;2022-11-14T11:55:32;19.08;;;12.98;;
22024;SDS011;11176;51.448;6.650;2022-11-14T11:58:22;17.15;;;11.60;;
22024;SDS011;11176;51.448;6.650;2022-11-14T12:01:11;15.77;;;10.65;;
22024;SDS011;11176;51.448;6.650;2022-11-14T12:03:58;15.00;;;10.68;;
22024;SDS011;11176;51.448;6.650;2022-11-14T12:06:45;17.48;;;10.73;;
22024;SDS011;11176;51.448;6.650;2022-11-14T12:09:40;14.75;;;10.15;;
22024;SDS011;11176;51.448;6.650;2022-11-14T12:16:08;16.98;;;11.57;;
22024;SDS011;11176;51.448;6.650;2022-11-14T12:24:57;15.32;;;9.80;;
22024;SDS011;11176;51.448;6.650;2022-11-14T12:28:00;14.98;;;9.82;;
22024;SDS011;11176;51.448;6.650;2022-11-14T12:30:58;17.38;;;10.23;;
22024;SDS011;11176;51.448;6.650;2022-11-14T12:33:49;15.45;;;10.45;;
22024;SDS011;11176;51.448;6.650;2022-11-14T12:36:39;14.15;;;9.63;;
22024;SDS011;11176;51.448;6.650;2022-11-14T12:39:28;16.70;;;10.40;;
22024;SDS011;11176;51.448;6.650;2022-11-14T12:42:18;18.58;;;10.95;;
22024;SDS011;11176;51.448;6.650;2022-11-14T12:45:47;16.98;;;10.80;;
22024;SDS011;11176;51.448;6.650;2022-11-14T12:57:37;18.13;;;11.05;;
22024;SDS011;11176;51.448;6.650;2022-11-14T13:09:38;18.40;;;11.88;;
22024;SDS011;11176;51.448;6.650;2022-11-14T13:12:38;17.13;;;10.75;;
22024;SDS011;11176;51.448;6.650;2022-11-14T13:15:52;18.25;;;12.82;;
22024;SDS011;11176;51.448;6.650;2022-11-14T13:19:00;20.55;;;12.15;;
22024;SDS011;11176;51.448;6.650;2022-11-14T13:27:44;16.70;;;11.23;;
22024;SDS011;11176;51.448;6.650;2022-11-14T13:34:00;14.20;;;10.15;;
22024;SDS011;11176;51.448;6.650;2022-11-14T13:37:35;17.83;;;10.60;;
22024;SDS011;11176;51.448;6.650;2022-11-14T13:40:33;15.38;;;10.02;;
22024;SDS011;11176;51.448;6.650;2022-11-14T13:43:29;16.25;;;10.63;;
22024;SDS011;11176;51.448;6.650;2022-11-14T13:49:51;17.17;;;11.55;;
22024;SDS011;11176;51.448;6.650;2022-11-14T13:52:43;18.27;;;11.35;;
22024;SDS011;11176;51.448;6.650;2022-11-14T13:55:50;19.08;;;11.20;;
22024;SDS011;11176;51.448;6.650;2022-11-14T14:08:10;17.05;;;10.98;;
22024;SDS011;11176;51.448;6.650;2022-11-14T14:23:45;20.50;;;12.77;;
22024;SDS011;11176;51.448;6.650;2022-11-14T14:30:00;22.42;;;12.85;;
22024;SDS011;11176;51.448;6.650;2022-11-14T14:33:09;18.58;;;13.10;;
22024;SDS011;11176;51.448;6.650;2022-11-14T14:35:56;24.42;;;15.50;;
22024;SDS011;11176;51.448;6.650;2022-11-14T14:38:40;20.83;;;13.27;;
22024;SDS011;11176;51.448;6.650;2022-11-14T14:41:29;22.23;;;14.38;;
22024;SDS011;11176;51.448;6.650;2022-11-14T14:50:18;18.65;;;13.00;;
22024;SDS011;11176;51.448;6.650;2022-11-14T14:53:06;18.52;;;12.20;;
22024;SDS011;11176;51.448;6.650;2022-11-14T14:56:12;19.77;;;13.65;;
22024;SDS011;11176;51.448;6.650;2022-11-14T14:59:14;18.60;;;12.88;;
22024;SDS011;11176;51.448;6.650;2022-11-14T15:02:00;21.15;;;13.88;;
22024;SDS011;11176;51.448;6.650;2022-11-14T15:04:46;21.40;;;13.27;;
22024;SDS011;11176;51.448;6.650;2022-11-14T15:07:31;19.50;;;13.52;;
22024;SDS011;11176;51.448;6.650;2022-11-14T15:10:23;22.38;;;15.02;;
22024;SDS011;11176;51.448;6.650;2022-11-14T15:13:13;40.40;;;25.38;;
22024;SDS011;11176;51.448;6.650;2022-11-14T15:15:59;30.80;;;21.33;;
22024;SDS011;11176;51.448;6.650;2022-11-14T15:18:47;27.85;;;18.73;;
22024;SDS011;11176;51.448;6.650;2022-11-14T15:21:34;32.85;;;19.77;;
22024;SDS011;11176;51.448;6.650;2022-11-14T15:24:22;26.63;;;18.02;;
22024;SDS011;11176;51.448;6.650;2022-11-14T15:27:11;27.33;;;17.45;;
22024;SDS011;11176;51.448;6.650;2022-11-14T15:30:02;24.70;;;17.02;;
22024;SDS011;11176;51.448;6.650;2022-11-14T15:32:50;25.58;;;18.13;;
22024;SDS011;11176;51.448;6.650;2022-11-14T15:35:40;27.15;;;19.20;;
22024;SDS011;11176;51.448;6.650;2022-11-14T15:38:26;21.23;;;13.07;;
22024;SDS011;11176;51.448;6.650;2022-11-14T15:41:29;30.38;;;20.80;;
22024;SDS011;11176;51.448;6.650;2022-11-14T15:44:31;26.67;;;17.50;;
22024;SDS011;11176;51.448;6.650;2022-11-14T15:47:27;25.90;;;15.00;;
22024;SDS011;11176;51.448;6.650;2022-11-14T15:50:30;22.48;;;14.35;;
22024;SDS011;11176;51.448;6.650;2022-11-14T15:56:09;20.58;;;13.98;;
22024;SDS011;11176;51.448;6.650;2022-11-14T15:58:55;24.73;;;14.23;;
22024;SDS011;11176;51.448;6.650;2022-11-14T16:01:40;24.90;;;14.93;;
22024;SDS011;11176;51.448;6.650;2022-11-14T16:04:37;23.42;;;14.88;;
22024;SDS011;11176;51.448;6.650;2022-11-14T16:07:31;26.30;;;15.00;;
22024;SDS011;11176;51.448;6.650;2022-11-14T16:10:20;24.08;;;16.17;;
22024;SDS011;11176;51.448;6.650;2022-11-14T16:13:06;21.25;;;15.07;;
22024;SDS011;11176;51.448;6.650;2022-11-14T16:15:51;22.95;;;13.82;;
22024;SDS011;11176;51.448;6.650;2022-11-14T16:18:36;22.42;;;14.32;;
22024;SDS011;11176;51.448;6.650;2022-11-14T16:21:21;20.48;;;14.07;;
22024;SDS011;11176;51.448;6.650;2022-11-14T16:24:09;26.00;;;16.10;;
22024;SDS011;11176;51.448;6.650;2022-11-14T16:26:57;23.98;;;15.13;;
22024;SDS011;11176;51.448;6.650;2022-11-14T16:29:42;20.80;;;13.43;;
22024;SDS011;11176;51.448;6.650;2022-11-14T16:32:27;20.85;;;13.48;;
22024;SDS011;11176;51.448;6.650;2022-11-14T16:35:14;28.42;;;18.85;;
22024;SDS011;11176;51.448;6.650;2022-11-14T16:38:00;23.55;;;13.77;;
22024;SDS011;11176;51.448;6.650;2022-11-14T16:40:45;19.58;;;13.52;;
22024;SDS011;11176;51.448;6.650;2022-11-14T16:43:30;18.48;;;11.88;;
22024;SDS011;11176;51.448;6.650;2022-11-14T16:46:16;19.17;;;13.68;;
22024;SDS011;11176;51.448;6.650;2022-11-14T16:49:01;19.98;;;13.73;;
22024;SDS011;11176;51.448;6.650;2022-11-14T16:51:47;16.92;;;12.43;;
22024;SDS011;11176;51.448;6.650;2022-11-14T16:54:34;20.67;;;14.13;;
22024;SDS011;11176;51.448;6.650;2022-11-14T16:57:19;20.92;;;13.90;;
22024;SDS011;11176;51.448;6.650;2022-11-14T17:00:05;20.65;;;13.55;;
22024;SDS011;11176;51.448;6.650;2022-11-14T17:02:52;18.80;;;12.70;;
22024;SDS011;11176;51.448;6.650;2022-11-14T17:05:43;20.65;;;13.45;;
22024;SDS011;11176;51.448;6.650;2022-11-14T17:08:30;19.83;;;13.25;;
22024;SDS011;11176;51.448;6.650;2022-11-14T17:11:15;21.40;;;12.65;;
22024;SDS011;11176;51.448;6.650;2022-11-14T17:14:00;20.50;;;14.02;;
22024;SDS011;11176;51.448;6.650;2022-11-14T17:16:45;25.25;;;17.08;;
22024;SDS011;11176;51.448;6.650;2022-11-14T17:19:30;32.47;;;21.73;;
22024;SDS011;11176;51.448;6.650;2022-11-14T17:22:15;23.15;;;15.23;;
22024;SDS011;11176;51.448;6.650;2022-11-14T17:25:01;18.83;;;14.07;;
22024;SDS011;11176;51.448;6.650;2022-11-14T17:27:47;24.30;;;15.57;;
22024;SDS011;11176;51.448;6.650;2022-11-14T17:30:32;63.58;;;38.08;;
22024;SDS011;11176;51.448;6.650;2022-11-14T17:33:17;74.93;;;41.28;;
22024;SDS011;11176;51.448;6.650;2022-11-14T17:36:05;85.40;;;48.05;;
22024;SDS011;11176;51.448;6.650;2022-11-14T17:38:52;44.67;;;26.63;;
22024;SDS011;11176;51.448;6.650;2022-11-14T17:41:37;71.90;;;43.42;;
22024;SDS011;11176;51.448;6.650;2022-11-14T17:44:22;66.85;;;45.22;;
22024;SDS011;11176;51.448;6.650;2022-11-14T17:47:07;35.47;;;24.08;;
22024;SDS011;11176;51.448;6.650;2022-11-14T17:49:52;25.17;;;18.20;;
22024;SDS011;11176;51.448;6.650;2022-11-14T17:52:37;19.80;;;15.90;;
22024;SDS011;11176;51.448;6.650;2022-11-14T17:55:24;19.58;;;14.45;;
22024;SDS011;11176;51.448;6.650;2022-11-14T17:58:09;21.10;;;14.20;;
22024;SDS011;11176;51.448;6.650;2022-11-14T18:00:56;20.67;;;14.57;;
22024;SDS011;11176;51.448;6.650;2022-11-14T18:03:44;19.00;;;14.13;;
22024;SDS011;11176;51.448;6.650;2022-11-14T18:06:30;19.77;;;12.32;;
22024;SDS011;11176;51.448;6.650;2022-11-14T18:09:17;21.42;;;14.25;;
22024;SDS011;11176;51.448;6.650;2022-11-14T18:12:02;17.48;;;12.43;;
22024;SDS011;11176;51.448;6.650;2022-11-14T18:14:47;16.45;;;11.77;;
22024;SDS011;11176;51.448;6.650;2022-11-14T18:17:32;18.25;;;12.25;;